帯広 の空港の天気 - METARとTAF

帯広空港 ( RJCB / OBO ) - 北海道帯広市
飛行場実況気象(Metar)
観測時間02/23 20:47 JST (02/23 11:47 UTC)
風向・風速不定 1m/s
視程2300m
天気現象弱いしゅう雪
少しの雲 雲底高度 90m
全天の8割程度の雲 雲底高度 240m
全天の8割程度の雲 雲底高度 460m
気温-1℃
湿度86%
気圧1012hPa
METARRJCB 231147Z VRB02KT 2300 -SHSN FEW003 BKN008 BKN015 M01/M03 Q1012 RMK 1ST003 5ST008 7ST015 A2991
過去の天気等 Google飛行場航空写真 Wunderground天気予報

過去48時間のMETAR

飛行場予報(TAF)
発表時間: 2/23 20:09 JST (2/23 11:09 UTC)
予報対象時間: 23日21時 JST ~ 25日3時 JST
風向・風速南南東 4m/s
視程10km以上
少しの雲 雲底高度 180m
全天の8割程度の雲 雲底高度 760m
23日21時 JST ~ 23日23時 JST に一時的に
視程1,500m
天気現象弱いしゅう雪
全天の8割程度の雲 雲底高度 180m
全天の8割程度の雲 雲底高度 760m
少しの積乱雲 雲底高度 760m
23日21時 JST ~ 23日23時 JST に徐々に
風向・風速北北西 3m/s
24日2時 JST ~ 24日6時 JST に一時的に
視程700m
天気現象氷霧
全天を覆う雲 鉛直視程 30m
TAF RJCB 231109Z 2312/2418 16007KT 9999 FEW006 BKN025
TEMPO 2312/2314 1500 -SHSN BKN006 BKN025 FEW025CB
BECMG 2312/2314 34005KT
TEMPO 2317/2321 0700 FZFG VV001
日本の空港のMETAR・TAFへのリンク

RJTT 東京国際空港
RJAA 新東京国際空港
RJBB 関西国際空港
RJOO 大阪空港
RJGG 中部国際空港
RJCC 新千歳空港
RJFF 福岡空港
ROAH 那覇空港


RJEC 旭川空港
RJCH 函館空港
RJCK 釧路空港
RJCM 女満別空港
RJCB 帯広空港
RJSA 青森空港
RJSS 仙台空港
RJSK 秋田空港
RJSF 福島空港
RJAH 茨城空港
RJSN 新潟空港
RJNT 富山空港
RJNK 小松飛行場
RJNS 静岡空港
RJOH 美保飛行場
RJOC 出雲空港
RJOB 岡山空港
RJOA 広島空港
RJOI 岩国飛行場
RJOT 高松空港
RJOM 松山空港
RJOK 高知空港
RJFR 北九州空港
RJFT 熊本空港
RJFU 長崎空港
RJFS 佐賀空港
RJFO 大分空港
RJFM 宮崎空港
RJFK 鹿児島空港
ROIG 石垣島空港
RJTY 横田飛行場
ROTM 普天間飛行場
RODN 嘉手納飛行場